createdAt,value
2019-01-25T00:02:00.689Z,57.63
2019-01-25T00:04:31.070Z,59.60
2019-01-25T00:07:01.430Z,61.90
2019-01-25T00:09:31.826Z,65.37
2019-01-25T00:12:02.792Z,60.53
2019-01-25T00:14:33.149Z,67.30
2019-01-25T00:17:03.549Z,63.10
2019-01-25T00:19:33.927Z,84.73
2019-01-25T00:22:05.354Z,61.23
2019-01-25T00:24:35.789Z,57.00
2019-01-25T00:27:06.478Z,54.30
2019-01-25T00:29:36.880Z,60.27
2019-01-25T00:32:07.187Z,57.30
2019-01-25T00:34:37.611Z,56.53
2019-01-25T00:37:07.991Z,49.23
2019-01-25T00:39:38.390Z,55.93
2019-01-25T00:42:08.996Z,49.70
2019-01-25T00:44:39.402Z,51.40
2019-01-25T00:47:09.782Z,55.17
2019-01-25T00:49:40.157Z,51.43
2019-01-25T00:52:10.760Z,53.80
2019-01-25T00:54:41.134Z,54.40
2019-01-25T00:57:11.605Z,49.90
2019-01-25T00:59:42.058Z,50.77
2019-01-25T01:02:12.384Z,55.73
2019-01-25T01:04:42.818Z,56.37
2019-01-25T01:07:13.222Z,54.60
2019-01-25T01:09:43.617Z,58.23
2019-01-25T01:12:14.026Z,59.13
2019-01-25T01:14:44.412Z,54.43
2019-01-25T01:17:14.844Z,53.00
2019-01-25T01:19:45.343Z,51.53
2019-01-25T01:22:15.840Z,59.03
2019-01-25T01:24:46.192Z,51.33
2019-01-25T01:27:16.839Z,55.47
2019-01-25T01:29:47.267Z,51.23
2019-01-25T01:32:17.703Z,52.27
2019-01-25T01:34:48.094Z,62.83
2019-01-25T01:37:18.516Z,58.90
2019-01-25T01:39:48.850Z,59.20
2019-01-25T01:42:19.251Z,51.73
2019-01-25T01:44:49.544Z,58.67
2019-01-25T01:47:20.020Z,56.00
2019-01-25T01:49:50.381Z,58.60
2019-01-25T01:52:21.186Z,55.63
2019-01-25T01:54:54.334Z,59.47
2019-01-25T01:57:24.697Z,64.13
2019-01-25T01:59:55.338Z,55.57
2019-01-25T02:02:25.667Z,57.53
2019-01-25T02:04:56.235Z,56.53
2019-01-25T02:07:26.708Z,57.37
2019-01-25T02:09:57.095Z,57.10
2019-01-25T02:12:27.525Z,55.73
2019-01-25T02:14:57.960Z,57.37
2019-01-25T02:17:28.490Z,62.67
2019-01-25T02:19:58.851Z,60.33
2019-01-25T02:22:29.295Z,63.13
2019-01-25T02:24:59.601Z,65.97
2019-01-25T02:27:30.309Z,54.73
2019-01-25T02:30:00.773Z,55.97
2019-01-25T02:32:31.301Z,57.13
2019-01-25T02:35:01.665Z,59.20
2019-01-25T02:37:32.136Z,60.37
2019-01-25T02:40:02.559Z,58.90
2019-01-25T02:42:33.376Z,52.63
2019-01-25T02:45:03.762Z,59.90
2019-01-25T02:47:34.183Z,55.10
2019-01-25T02:50:05.211Z,57.43
2019-01-25T02:52:35.613Z,55.57
2019-01-25T02:55:07.836Z,58.40
2019-01-25T02:57:38.155Z,60.57
2019-01-25T03:00:19.967Z,55.57
2019-01-25T03:02:50.561Z,60.37
2019-01-25T03:05:21.616Z,57.97
2019-01-25T03:07:52.160Z,64.93
2019-01-25T03:10:28.717Z,58.37
2019-01-25T03:12:55.815Z,58.77
2019-01-25T03:15:27.508Z,60.60
2019-01-25T03:17:58.017Z,53.57
2019-01-25T03:20:28.653Z,62.27
2019-01-25T03:22:59.104Z,80.10
2019-01-25T03:25:29.726Z,77.60
2019-01-25T03:28:00.093Z,85.13
2019-01-25T03:30:30.462Z,76.73
2019-01-25T03:33:00.929Z,80.33
2019-01-25T03:35:31.369Z,91.03
2019-01-25T03:38:01.829Z,89.87
2019-01-25T03:40:32.381Z,85.37
2019-01-25T03:43:02.722Z,85.50
2019-01-25T03:45:33.243Z,85.10
2019-01-25T03:48:03.708Z,88.53
2019-01-25T03:50:34.089Z,91.07
2019-01-25T03:53:04.405Z,94.50
2019-01-25T03:55:34.814Z,89.23
2019-01-25T03:58:05.473Z,94.77
2019-01-25T04:00:35.885Z,90.70
2019-01-25T04:03:06.530Z,87.80
2019-01-25T04:05:36.923Z,91.00
2019-01-25T04:08:07.367Z,84.20
2019-01-25T04:10:41.231Z,95.20
2019-01-25T04:13:11.780Z,98.33
2019-01-25T04:15:42.572Z,93.43
2019-01-25T04:18:13.181Z,102.60
2019-01-25T04:20:43.856Z,98.57
2019-01-25T04:23:14.249Z,99.10
2019-01-25T04:25:45.167Z,98.43
2019-01-25T04:28:15.751Z,93.00
2019-01-25T04:30:46.164Z,94.33
2019-01-25T04:33:16.955Z,85.10
2019-01-25T04:35:47.381Z,86.53
2019-01-25T04:38:17.948Z,82.20
2019-01-25T04:40:48.516Z,90.90
2019-01-25T04:43:18.937Z,103.17
2019-01-25T04:45:49.634Z,94.60
2019-01-25T04:48:20.077Z,92.53
2019-01-25T04:50:50.732Z,92.83
2019-01-25T04:53:21.082Z,100.77
2019-01-25T04:55:51.785Z,87.00
2019-01-25T04:58:22.417Z,99.60
2019-01-25T05:00:52.873Z,95.70
2019-01-25T05:03:23.286Z,100.53
2019-01-25T05:05:53.711Z,96.17
2019-01-25T05:08:23.956Z,98.67
2019-01-25T05:10:54.385Z,93.10
2019-01-25T05:13:24.670Z,99.80
2019-01-25T05:15:55.182Z,97.90
2019-01-25T05:18:25.561Z,85.57
2019-01-25T05:20:55.874Z,96.13
2019-01-25T05:23:26.285Z,91.17
2019-01-25T05:26:10.035Z,98.23
2019-01-25T05:28:40.351Z,88.07
2019-01-25T05:31:10.677Z,95.47
2019-01-25T05:33:41.031Z,96.20
2019-01-25T05:36:11.339Z,88.37
2019-01-25T05:38:46.609Z,91.40
2019-01-25T05:41:16.914Z,91.53
2019-01-25T05:43:47.293Z,96.93
2019-01-25T05:46:17.562Z,95.83
2019-01-25T05:48:47.832Z,97.80
2019-01-25T05:51:18.197Z,107.90
2019-01-25T05:53:52.891Z,106.47
2019-01-25T05:56:23.767Z,100.07
2019-01-25T05:58:54.209Z,99.33
2019-01-25T06:01:24.614Z,99.97
2019-01-25T06:03:54.940Z,100.97
2019-01-25T06:06:25.301Z,102.17
2019-01-25T06:08:55.759Z,106.10
2019-01-25T06:11:26.179Z,95.00
2019-01-25T06:13:56.467Z,98.80
2019-01-25T06:16:26.745Z,104.23
2019-01-25T06:18:57.028Z,98.63
2019-01-25T06:21:27.306Z,97.00
2019-01-25T06:23:57.661Z,91.40
2019-01-25T06:26:27.857Z,103.17
2019-01-25T06:28:58.261Z,111.37
2019-01-25T06:31:28.468Z,104.40
2019-01-25T06:33:58.699Z,97.97
2019-01-25T06:36:29.147Z,105.47
2019-01-25T06:39:00.429Z,99.30
2019-01-25T06:41:30.619Z,104.87
2019-01-25T06:44:00.890Z,119.43
2019-01-25T06:46:31.055Z,104.33
2019-01-25T06:49:01.213Z,116.43
2019-01-25T06:51:31.339Z,106.90
2019-01-25T06:54:01.602Z,109.33
2019-01-25T06:56:31.761Z,109.20
2019-01-25T06:59:23.575Z,106.40
2019-01-25T07:02:04.611Z,103.47
2019-01-25T07:04:34.905Z,107.03
2019-01-25T07:07:07.571Z,113.57
2019-01-25T07:09:37.721Z,102.93
2019-01-25T07:12:07.913Z,109.23
2019-01-25T07:14:39.477Z,118.00
2019-01-25T07:17:09.781Z,120.73
2019-01-25T07:19:40.099Z,103.67
2019-01-25T07:22:10.524Z,102.63
2019-01-25T07:24:41.353Z,111.57
2019-01-25T07:27:12.839Z,104.77
2019-01-25T07:29:43.334Z,108.83
2019-01-25T07:32:13.948Z,111.70
2019-01-25T07:34:44.607Z,124.77
2019-01-25T07:37:15.243Z,121.33
2019-01-25T07:39:46.888Z,104.47
2019-01-25T07:42:17.381Z,115.60
2019-01-25T07:44:47.837Z,110.00
2019-01-25T07:47:18.338Z,109.37
2019-01-25T07:49:49.112Z,102.10
2019-01-25T07:52:19.864Z,105.90
2019-01-25T07:54:50.362Z,112.00
2019-01-25T07:57:21.024Z,118.87
2019-01-25T07:59:51.588Z,121.67
2019-01-25T08:02:22.308Z,123.77
2019-01-25T08:04:52.829Z,109.93
2019-01-25T08:07:23.512Z,106.43
2019-01-25T08:09:54.253Z,112.63
2019-01-25T08:12:24.860Z,112.73
2019-01-25T08:14:55.287Z,109.83
2019-01-25T08:17:26.003Z,113.03
2019-01-25T08:19:56.723Z,110.47
2019-01-25T08:22:27.787Z,109.70
2019-01-25T08:24:58.623Z,121.17
2019-01-25T08:27:29.551Z,118.77
2019-01-25T08:30:00.414Z,106.60
2019-01-25T08:32:31.162Z,116.77
2019-01-25T08:35:01.843Z,106.67
2019-01-25T08:37:32.612Z,102.20
2019-01-25T08:40:03.226Z,103.20
2019-01-25T08:42:33.924Z,106.80
2019-01-25T08:45:05.089Z,106.53
2019-01-25T08:47:37.127Z,107.57
2019-01-25T08:50:11.777Z,116.67
2019-01-25T08:52:42.610Z,108.33
2019-01-25T08:55:13.328Z,108.67
2019-01-25T08:57:44.223Z,102.73
2019-01-25T09:00:18.031Z,106.40
2019-01-25T09:02:48.552Z,108.83
2019-01-25T09:05:20.351Z,117.40
2019-01-25T09:07:51.024Z,109.67
2019-01-25T09:10:21.622Z,97.40
2019-01-25T09:12:52.178Z,93.63
2019-01-25T09:15:25.188Z,114.53
2019-01-25T09:17:55.715Z,103.67
2019-01-25T09:20:26.221Z,93.80
2019-01-25T09:22:56.673Z,98.37
2019-01-25T09:25:27.643Z,93.37
2019-01-25T09:27:58.656Z,95.27
2019-01-25T09:30:29.275Z,102.40
2019-01-25T09:32:59.982Z,98.43
2019-01-25T09:35:30.595Z,94.53
2019-01-25T09:38:01.342Z,89.83
2019-01-25T09:40:32.128Z,97.77
2019-01-25T09:43:02.813Z,87.00
2019-01-25T09:45:33.745Z,84.93
2019-01-25T09:48:04.548Z,82.67
2019-01-25T09:50:35.078Z,70.03
2019-01-25T09:53:06.162Z,67.63
2019-01-25T09:55:36.726Z,57.47
2019-01-25T09:58:09.802Z,63.70
2019-01-25T10:00:53.510Z,63.27
2019-01-25T10:03:24.094Z,66.17
2019-01-25T10:05:54.490Z,62.87
2019-01-25T10:08:25.228Z,54.83
2019-01-25T10:10:55.846Z,94.47
2019-01-25T10:13:26.612Z,75.80
2019-01-25T10:15:57.607Z,67.40
2019-01-25T10:18:27.910Z,72.97
2019-01-25T10:20:58.526Z,90.77
2019-01-25T10:23:29.170Z,82.60
2019-01-25T10:26:00.310Z,69.23
2019-01-25T10:28:30.996Z,84.30
2019-01-25T10:31:01.394Z,79.03
2019-01-25T10:33:31.888Z,56.73
2019-01-25T10:36:02.284Z,123.83
2019-01-25T10:38:32.904Z,195.20
2019-01-25T10:41:03.429Z,128.07
2019-01-25T10:43:34.086Z,96.57
2019-01-25T10:46:04.980Z,96.73
2019-01-25T10:48:35.394Z,57.43
2019-01-25T10:51:06.006Z,53.17
2019-01-25T10:53:36.717Z,54.87
2019-01-25T10:56:07.799Z,51.23
2019-01-25T10:58:38.158Z,47.37
2019-01-25T11:01:09.810Z,49.40
2019-01-25T11:03:40.342Z,46.80
2019-01-25T11:06:11.168Z,39.67
2019-01-25T11:08:41.718Z,47.77
2019-01-25T11:11:12.309Z,49.13
2019-01-25T11:13:43.164Z,47.73
2019-01-25T11:16:13.742Z,47.37
2019-01-25T11:18:44.354Z,44.57
2019-01-25T11:21:14.777Z,51.03
2019-01-25T11:23:45.278Z,46.73
2019-01-25T11:26:16.151Z,46.57
2019-01-25T11:28:46.754Z,48.90
2019-01-25T11:31:17.476Z,53.03
2019-01-25T11:33:47.781Z,71.20
2019-01-25T11:36:20.167Z,69.67
2019-01-25T11:38:50.836Z,157.43
2019-01-25T11:41:21.539Z,79.53
2019-01-25T11:43:52.052Z,52.50
2019-01-25T11:46:22.634Z,60.47
2019-01-25T11:48:53.064Z,59.40
2019-01-25T11:51:23.665Z,67.57
2019-01-25T11:53:54.194Z,85.67
2019-01-25T11:56:24.980Z,86.10
2019-01-25T11:58:55.399Z,101.63
2019-01-25T12:01:26.099Z,106.93
2019-01-25T12:03:56.654Z,81.13
2019-01-25T12:06:27.389Z,76.03
2019-01-25T12:08:57.797Z,76.47
2019-01-25T12:11:28.363Z,82.67
2019-01-25T12:13:58.826Z,105.27
2019-01-25T12:16:29.407Z,63.73
2019-01-25T12:18:59.871Z,59.70
2019-01-25T12:21:30.269Z,65.33
2019-01-25T12:24:00.745Z,57.33
2019-01-25T12:26:31.471Z,63.57
2019-01-25T12:29:02.077Z,58.10
2019-01-25T12:31:32.677Z,56.43
2019-01-25T12:34:03.254Z,56.73
2019-01-25T12:36:33.718Z,56.33
2019-01-25T12:39:06.800Z,57.13
2019-01-25T12:41:37.240Z,54.43
2019-01-25T12:44:07.683Z,57.73
2019-01-25T12:46:38.214Z,65.80
2019-01-25T12:49:09.324Z,57.80
2019-01-25T12:51:47.969Z,55.97
2019-01-25T12:54:18.822Z,51.37
2019-01-25T12:56:49.421Z,63.00
2019-01-25T12:59:19.876Z,53.63
2019-01-25T13:01:51.464Z,56.33
2019-01-25T13:04:22.012Z,56.03
2019-01-25T13:06:52.424Z,60.77
2019-01-25T13:09:22.816Z,53.97
2019-01-25T13:11:53.335Z,49.00
2019-01-25T13:14:24.066Z,54.83
2019-01-25T13:16:54.654Z,42.70
2019-01-25T13:19:25.283Z,46.30
2019-01-25T13:21:55.961Z,40.33
2019-01-25T13:24:26.493Z,41.07
2019-01-25T13:26:57.310Z,38.10
2019-01-25T13:29:27.826Z,40.30
2019-01-25T13:31:58.297Z,37.60
2019-01-25T13:34:28.991Z,38.53
2019-01-25T13:36:59.558Z,40.00
2019-01-25T13:39:30.195Z,40.60
2019-01-25T13:42:00.669Z,35.47
2019-01-25T13:44:31.188Z,36.63
2019-01-25T13:47:01.680Z,34.77
2019-01-25T13:49:32.174Z,29.03
2019-01-25T13:52:02.738Z,30.27
2019-01-25T13:54:33.503Z,34.43
2019-01-25T13:57:04.075Z,32.93
2019-01-25T13:59:34.599Z,31.53
2019-01-25T14:02:05.305Z,33.13
2019-01-25T14:04:35.870Z,33.40
2019-01-25T14:07:06.346Z,29.40
2019-01-25T14:09:37.006Z,36.47
2019-01-25T14:12:08.663Z,32.73
2019-01-25T14:14:39.183Z,28.47
2019-01-25T14:17:09.485Z,33.37
2019-01-25T14:19:39.903Z,31.47
2019-01-25T14:22:10.365Z,32.63
2019-01-25T14:24:40.919Z,34.33
2019-01-25T14:27:11.566Z,36.53
2019-01-25T14:29:41.979Z,34.80
2019-01-25T14:32:12.534Z,35.30
2019-01-25T14:34:42.947Z,32.50
2019-01-25T14:37:13.475Z,37.10
2019-01-25T14:39:44.157Z,34.83
2019-01-25T14:42:15.535Z,38.83
2019-01-25T14:44:46.246Z,34.00
2019-01-25T14:47:16.675Z,36.60
2019-01-25T14:49:47.174Z,30.90
2019-01-25T14:52:17.781Z,39.37
2019-01-25T14:54:48.522Z,41.83
2019-01-25T14:57:19.113Z,35.50
2019-01-25T14:59:49.754Z,36.87
2019-01-25T15:02:20.335Z,41.43
2019-01-25T15:04:51.051Z,38.60
2019-01-25T15:07:21.760Z,37.10
2019-01-25T15:09:52.606Z,36.50
2019-01-25T15:12:22.996Z,39.33
2019-01-25T15:14:53.490Z,35.90
2019-01-25T15:17:24.131Z,39.60
2019-01-25T15:19:57.505Z,35.37
2019-01-25T15:22:28.113Z,38.17
2019-01-25T15:24:58.722Z,39.13
2019-01-25T15:27:29.538Z,45.97
2019-01-25T15:30:00.380Z,38.30
2019-01-25T15:32:31.099Z,40.00
2019-01-25T15:35:01.624Z,45.90
2019-01-25T15:37:32.359Z,42.47
2019-01-25T15:40:02.711Z,38.97
2019-01-25T15:42:33.204Z,41.33
2019-01-25T15:45:03.954Z,40.67
2019-01-25T15:47:34.333Z,40.87
2019-01-25T15:50:07.562Z,41.90
2019-01-25T15:52:37.790Z,40.57
2019-01-25T15:55:08.394Z,43.27
2019-01-25T15:57:38.758Z,41.23
2019-01-25T16:00:13.654Z,44.07
2019-01-25T16:02:44.665Z,41.03
2019-01-25T16:05:16.717Z,44.33
2019-01-25T16:07:47.423Z,44.17
2019-01-25T16:10:19.327Z,43.07
2019-01-25T16:12:49.832Z,41.33
2019-01-25T16:15:28.413Z,39.97
2019-01-25T16:17:58.781Z,42.30
2019-01-25T16:20:29.002Z,46.77
2019-01-25T16:22:59.645Z,43.90
2019-01-25T16:25:32.129Z,45.27
2019-01-25T16:28:02.386Z,41.53
2019-01-25T16:30:35.117Z,43.37
2019-01-25T16:33:05.618Z,40.60
2019-01-25T16:35:35.999Z,47.57
2019-01-25T16:38:06.907Z,44.03
2019-01-25T16:40:37.244Z,48.40
2019-01-25T16:43:09.413Z,48.20
2019-01-25T16:45:44.595Z,38.90
2019-01-25T16:48:14.800Z,47.47
2019-01-25T16:50:45.092Z,43.97
2019-01-25T16:53:15.691Z,52.80
2019-01-25T16:55:46.046Z,42.97
2019-01-25T16:58:16.349Z,48.30
2019-01-25T17:00:48.175Z,46.07
2019-01-25T17:03:19.056Z,48.90
2019-01-25T17:05:49.339Z,50.57
2019-01-25T17:08:20.130Z,53.17
2019-01-25T17:10:50.501Z,48.83
2019-01-25T17:13:21.716Z,43.90
2019-01-25T17:15:53.774Z,43.47
2019-01-25T17:18:24.002Z,43.17
2019-01-25T17:20:54.364Z,52.33
2019-01-25T17:23:24.708Z,47.73
2019-01-25T17:25:55.142Z,47.50
2019-01-25T17:28:25.452Z,45.67
2019-01-25T17:30:55.753Z,44.23
2019-01-25T17:33:26.164Z,42.57
2019-01-25T17:35:56.406Z,50.20
2019-01-25T17:38:26.786Z,51.13
2019-01-25T17:40:57.084Z,42.43
2019-01-25T17:43:27.492Z,46.63
2019-01-25T17:45:57.886Z,46.90
2019-01-25T17:48:28.176Z,48.30
2019-01-25T17:50:58.492Z,43.50
2019-01-25T17:53:28.925Z,44.77
2019-01-25T17:55:59.287Z,45.23
2019-01-25T17:58:30.014Z,44.17
2019-01-25T18:01:00.339Z,42.57
2019-01-25T18:03:30.689Z,45.70
2019-01-25T18:06:00.957Z,42.53
2019-01-25T18:08:31.319Z,46.27
2019-01-25T18:11:01.758Z,45.00
2019-01-25T18:13:31.993Z,44.67
2019-01-25T18:16:02.305Z,41.90
2019-01-25T18:18:33.723Z,43.03
2019-01-25T18:21:04.001Z,47.13
2019-01-25T18:23:34.322Z,48.30
2019-01-25T18:26:11.157Z,51.00
2019-01-25T18:28:47.272Z,48.10
2019-01-25T18:31:20.876Z,51.83
2019-01-25T18:33:51.300Z,45.93
2019-01-25T18:36:21.578Z,49.33
2019-01-25T18:38:52.224Z,44.30
2019-01-25T18:41:22.621Z,48.57
2019-01-25T18:43:53.110Z,46.17
2019-01-25T18:46:23.369Z,46.87
2019-01-25T18:48:53.800Z,43.80
2019-01-25T18:51:24.162Z,54.17
2019-01-25T18:53:54.798Z,50.13
2019-01-25T18:56:26.569Z,43.20
2019-01-25T18:58:57.228Z,50.77
2019-01-25T19:01:27.569Z,50.67
2019-01-25T19:03:57.972Z,48.90
2019-01-25T19:06:28.431Z,55.63
2019-01-25T19:08:58.898Z,47.77
2019-01-25T19:11:29.256Z,47.53
2019-01-25T19:13:59.596Z,53.57
2019-01-25T19:16:30.003Z,49.43
2019-01-25T19:19:00.755Z,47.40
2019-01-25T19:21:32.817Z,51.17
2019-01-25T19:24:03.217Z,52.97
2019-01-25T19:26:37.978Z,49.97
2019-01-25T19:29:08.342Z,48.10
2019-01-25T19:31:38.806Z,38.20
2019-01-25T19:34:09.391Z,59.13
2019-01-25T19:36:39.839Z,57.17
2019-01-25T19:39:13.157Z,54.93
2019-01-25T19:41:43.585Z,57.00
2019-01-25T19:44:16.638Z,52.30
2019-01-25T19:46:47.326Z,48.80
2019-01-25T19:49:17.780Z,50.43
2019-01-25T19:51:48.234Z,50.10
2019-01-25T19:54:18.580Z,45.70
2019-01-25T19:56:48.941Z,49.47
2019-01-25T19:59:19.543Z,48.63
2019-01-25T20:01:49.902Z,52.10
2019-01-25T20:04:21.968Z,45.90
2019-01-25T20:06:52.334Z,52.60
2019-01-25T20:09:22.724Z,49.73
2019-01-25T20:11:53.190Z,51.03
2019-01-25T20:14:23.665Z,41.00
2019-01-25T20:16:54.052Z,51.13
2019-01-25T20:19:24.810Z,47.83
2019-01-25T20:21:55.194Z,46.90
2019-01-25T20:24:25.678Z,45.30
2019-01-25T20:26:56.009Z,50.27
2019-01-25T20:29:26.460Z,42.87
2019-01-25T20:31:56.796Z,39.20
2019-01-25T20:34:27.157Z,43.50
2019-01-25T20:36:57.612Z,45.97
2019-01-25T20:39:28.025Z,41.40
2019-01-25T20:42:02.616Z,48.07
2019-01-25T20:44:33.169Z,50.03
2019-01-25T20:47:03.774Z,45.23
2019-01-25T20:49:34.143Z,40.97
2019-01-25T20:52:04.711Z,41.10
2019-01-25T20:54:35.044Z,48.43
2019-01-25T20:57:07.175Z,44.73
2019-01-25T20:59:37.570Z,50.73
2019-01-25T21:02:08.347Z,48.17
2019-01-25T21:04:39.101Z,49.20
2019-01-25T21:07:09.591Z,45.27
2019-01-25T21:09:40.159Z,47.73
2019-01-25T21:12:32.131Z,54.10
2019-01-25T21:15:08.661Z,50.27
2019-01-25T21:17:39.456Z,60.97
2019-01-25T21:20:19.417Z,51.67
2019-01-25T21:22:50.088Z,57.20
2019-01-25T21:25:20.507Z,53.70
2019-01-25T21:27:50.887Z,54.87
2019-01-25T21:30:26.485Z,57.33
2019-01-25T21:32:57.581Z,57.03
2019-01-25T21:35:30.268Z,54.97
2019-01-25T21:38:00.889Z,53.53
2019-01-25T21:40:32.563Z,59.93
2019-01-25T21:43:02.922Z,50.97
2019-01-25T21:45:42.728Z,57.47
2019-01-25T21:48:13.249Z,58.50
2019-01-25T21:50:44.656Z,57.43
2019-01-25T21:53:15.015Z,64.17
2019-01-25T21:55:45.434Z,65.53
2019-01-25T21:58:16.180Z,70.63
2019-01-25T22:00:46.583Z,59.07
2019-01-25T22:03:16.876Z,61.23
2019-01-25T22:05:47.245Z,64.47
2019-01-25T22:08:17.599Z,60.90
2019-01-25T22:10:49.642Z,52.10
2019-01-25T22:13:20.024Z,67.73
2019-01-25T22:15:51.264Z,61.20
2019-01-25T22:18:21.988Z,62.63
2019-01-25T22:20:52.362Z,66.03
2019-01-25T22:23:22.673Z,59.50
2019-01-25T22:25:57.036Z,64.43
2019-01-25T22:28:28.699Z,65.40
2019-01-25T22:31:01.035Z,61.60
2019-01-25T22:33:33.443Z,55.40
2019-01-25T22:36:04.164Z,52.27
2019-01-25T22:38:35.761Z,57.33
2019-01-25T22:41:06.244Z,56.10
2019-01-25T22:43:36.621Z,52.97
2019-01-25T22:46:07.093Z,51.77
2019-01-25T22:48:37.479Z,51.57
2019-01-25T22:51:08.565Z,57.50
2019-01-25T22:54:19.123Z,49.07
2019-01-25T22:56:49.657Z,47.53
2019-01-25T22:59:20.254Z,47.57
2019-01-25T23:01:50.585Z,55.13
2019-01-25T23:04:50.759Z,42.43
2019-01-25T23:07:27.336Z,42.83
2019-01-25T23:10:03.449Z,45.70
2019-01-25T23:12:33.787Z,39.50
2019-01-25T23:15:05.351Z,36.00
2019-01-25T23:17:36.860Z,52.73
2019-01-25T23:22:45.009Z,60.97
2019-01-25T23:25:16.899Z,49.00
2019-01-25T23:27:53.419Z,49.30
2019-01-25T23:30:23.766Z,35.33
2019-01-25T23:32:54.077Z,34.20
2019-01-25T23:35:24.457Z,36.83
2019-01-25T23:37:54.875Z,42.67
2019-01-25T23:40:25.331Z,32.10
2019-01-25T23:42:55.810Z,29.27
2019-01-25T23:45:26.315Z,30.73
2019-01-25T23:47:56.834Z,31.70
2019-01-25T23:50:27.166Z,29.87
2019-01-25T23:52:57.487Z,28.57
2019-01-25T23:55:27.770Z,41.90
2019-01-25T23:57:58.089Z,44.23
